• Join FlightAware (Why Join?)
  • Login
  • US Flag 
02:40PM EDT


 

Airport Tracker/Info


-or-


 

Live Flight TrackerFlight Track Log ✈ DAL268 ✈ 13-Apr-2013 ✈ KJFK - LLBG / TLV

Flight Track Log - Related Links

Times and Time Zones

All times are in EDT time to prevent confusion due to time zone crossing. See the DAL268 flight status page for this flight to view local times or setup timezone preferences in your user account.

Time Position Orientation Groundspeed Altitude Reporting Facility
EDT Latitude Longitude Course Direction KTS MPH feet Rate Location/Type
12:23AM 40.5027 -73.5720 81° East 326 375 7,300  Level FlightAware ADS-B
12:23AM 40.5066 -73.5366 82° East 332 382 7,900 1,740 Climbing FlightAware ADS-B
12:24AM 40.5096 -73.5045 83° East 339 390 8,300 1,740 Climbing FlightAware ADS-B
12:24AM 40.5123 -73.4733 83° East 344 396 8,800 1,740 Climbing FlightAware ADS-B
12:24AM 40.5152 -73.4398 83° East 349 402 9,200 1,740 Climbing FlightAware ADS-B
12:24AM 40.5181 -73.4078 83° East 352 405 9,700 1,560 Climbing FlightAware ADS-B
12:25AM 40.5242 -73.3416 83° East 367 422 10,400 1,020 Climbing FlightAware ADS-B
12:26AM 40.5308 -73.2710 83° East 395 455 10,800 1,140 Climbing FlightAware ADS-B
12:26AM 40.5377 -73.1954 83° East 412 474 11,600 1,740 Climbing FlightAware ADS-B
12:27AM 40.5448 -73.1171 83° East 420 483 12,600 2,100 Climbing FlightAware ADS-B
12:27AM 40.5506 -73.0543 83° East 421 484 13,600 2,280 Climbing FlightAware ADS-B
12:27AM 40.5568 -73.0090 80° East 423 487 14,200 1,920 Climbing FlightAware ADS-B
12:28AM 40.5743 -72.9321 73° East 431 496 15,200 1,500 Climbing FlightAware ADS-B
12:28AM 40.5946 -72.8539 71° East 452 520 15,800 840 Climbing FlightAware ADS-B
12:29AM 40.6154 -72.7730 71° East 478 550 16,100 960 Climbing FlightAware ADS-B
12:29AM 40.6374 -72.6872 71° East 493 567 16,800 1,560 Climbing FlightAware ADS-B
12:30AM 40.6664 -72.5722 72° East 494 568 18,000 1,620 Climbing FlightAware ADS-B
12:31AM 40.6970 -72.4490 72° East 513 590 19,100 1,380 Climbing FlightAware
12:31AM 40.7280 -72.3280 71° East 527 606 20,000 1,440 Climbing FlightAware
12:32AM 40.7427 -72.2686 72° East 533 613 20,500 1,320 Climbing FlightAware ADS-B
12:33AM 40.7950 -72.0590 72° East 551 634 21,900 1,260 Climbing FlightAware
12:33AM 40.8250 -71.9370 72° East 560 644 22,800 720 Climbing FlightAware
12:34AM 40.8550 -71.8160 72° East 561 646 22,900 60 Climbing FlightAware
12:35AM 40.8820 -71.7050 72° East 561 646 22,900  Level FlightAware
12:36AM 40.9160 -71.5660 72° East 561 646 22,900  Level FlightAware
12:36AM 40.9430 -71.4550 72° East 561 646 22,900  Level FlightAware
12:37AM 40.9710 -71.3440 71° East 561 646 22,900 2,580 Level FlightAware
12:38AM 41.0980 -70.9290 68° East 613 705 28,300 3,000 Climbing FlightAware
12:39AM 41.1390 -70.8120 65° Northeast 618 711 29,000 1,200 Climbing FlightAware
12:40AM 41.1990 -70.6360 66° East 613 705 30,000 1,260 Climbing FlightAware
12:40AM 41.2370 -70.5220 66° East 612 704 30,800 660 Climbing FlightAware
12:41AM 41.2920 -70.3540 66° East 613 705 31,000 60 Climbing FlightAware
12:42AM 41.3510 -70.1780 66° East 611 703 31,000  Level FlightAware
12:43AM 41.3980 -70.0350 66° East 608 700 31,000  Level FlightAware
12:43AM 41.4420 -69.9000 66° East 607 699 31,000  Level FlightAware
12:44AM 41.5020 -69.7240 65° Northeast 604 695 31,000  Level FlightAware
12:45AM 41.5450 -69.5950 66° East 606 697 31,000  Level FlightAware
12:46AM 41.5930 -69.4500 66° East 608 700 31,000  Level FlightAware
12:46AM 41.6440 -69.2940 66° East 611 703 31,000  Level FlightAware
12:47AM 41.6910 -69.1510 66° East 616 709 31,000  Level FlightAware
12:48AM 41.7270 -69.0430 66° East 614 707 31,000  Level FlightAware
12:48AM 41.7730 -68.8970 67° East 614 707 31,000  Level FlightAware
12:49AM 41.8100 -68.7780 67° East 614 707 31,000  Level FlightAware
12:50AM 41.9220 -68.4350 66° East 31,000  Level FlightAware
12:52AM 42.0580 -68.0070 67° East 611 703 31,000  Level FlightAware
12:53AM 42.1010 -67.8680 67° East 612 704 31,000  Level FlightAware
12:54AM 42.1460 -67.7230 67° East 613 705 31,000  Level FlightAware
12:55AM 42.1940 -67.5680 67° East 613 705 31,000  Level FlightAware
12:55AM 42.2280 -67.4560 68° East 613 705 31,000  Level FlightAware
12:56AM 42.2730 -67.3050 68° East 613 705 31,000  Level FlightAware
12:57AM 42.3090 -67.1840 68° East 613 705 31,000  Level FlightAware
12:57AM 42.3450 -67.0630 68° East 613 705 31,000  Level FlightAware
12:58AM 42.3810 -66.9420 68° East 613 705 31,000  Level FlightAware
12:59AM 42.4170 -66.8210 68° East 613 705 31,000  Level FlightAware
12:59AM 42.4530 -66.7000 68° East 613 705 31,000  Level FlightAware
01:00AM 42.4990 -66.5490 68° East 613 705 31,000  Level FlightAware
01:01AM 42.5350 -66.4270 68° East 613 705 31,000  Level FlightAware
01:01AM 42.5710 -66.3060 68° East 613 705 31,000  Level FlightAware
01:02AM 42.6070 -66.1840 68° East 613 705 31,000  Level FlightAware
01:03AM 42.6520 -66.0320 68° East 613 705 31,000  Level FlightAware
01:04AM 42.6880 -65.9110 68° East 613 705 31,000  Level FlightAware
01:04AM 42.7240 -65.7890 68° East 613 705 31,000  Level FlightAware
01:05AM 42.8333 -65.4000 68° East 610 702 31,000  Level Moncton Center
01:06AM 42.8833 -65.1667 74° East 600 690 31,000  Level Moncton Center
01:07AM 42.9500 -64.9667 65° Northeast 600 690 31,000  Level Moncton Center
01:08AM 43.0000 -64.7333 74° East 610 702 31,000  Level Moncton Center
01:09AM 43.0667 -64.5333 65° Northeast 600 690 31,000  Level Moncton Center
01:10AM 43.1167 -64.3333 71° East 610 702 31,000  Level Moncton Center
01:11AM 43.1833 -64.1000 69° East 600 690 31,000  Level Moncton Center
01:12AM 43.2333 -63.9000 71° East 610 702 31,000  Level Moncton Center
01:13AM 43.2833 -63.6667 74° East 600 690 31,000  Level Moncton Center
01:14AM 43.3500 -63.4333 68° East 610 702 31,000  Level Moncton Center
01:15AM 43.4167 -63.2167 67° East 610 702 31,000  Level Moncton Center
01:15AM 43.4500 -63.0500 75° East 610 702 31,000  Level Gander Center
01:16AM 43.5000 -62.8500 71° East 610 702 31,000  Level Gander Center
01:17AM 43.5500 -62.6167 73° East 610 702 31,000  Level Gander Center
01:18AM 43.5667 -62.5500 71° East 610 702 31,000  Level Moncton Center
01:19AM 43.6333 -62.3500 65° Northeast 600 690 31,000  Level Moncton Center
01:20AM 43.6833 -62.1167 73° East 600 690 31,000  Level Moncton Center
01:20AM 43.7333 -61.9500 67° East 610 702 31,000  Level Gander Center
01:21AM 43.7833 -61.7167 73° East 600 690 31,000  Level Gander Center
01:22AM 43.8333 -61.5167 71° East 610 702 31,000  Level Gander Center
01:23AM 43.8500 -61.4500 71° East 600 690 31,000  Level Moncton Center
01:24AM 43.8833 -61.2500 77° East 600 690 31,000  Level Moncton Center
01:25AM 43.9500 -61.0000 70° East 600 690 31,000  Level Moncton Center
01:26AM 44.0000 -60.8000 71° East 600 690 31,000  Level Moncton Center
01:27AM 44.0500 -60.5833 72° East 600 690 31,000  Level Moncton Center
01:28AM 44.1000 -60.3667 72° East 600 690 31,000  Level Moncton Center
01:28AM 44.1333 -60.1833 76° East 600 690 31,000  Level Gander Center
01:29AM 44.1500 -60.1333 65° Northeast 600 690 31,000  Level Moncton Center
01:30AM 44.2000 -59.9167 72° East 600 690 31,000  Level Moncton Center
01:31AM 44.2500 -59.6833 73° East 600 690 31,000  Level Moncton Center
01:32AM 44.3000 -59.4667 72° East 600 690 31,000  Level Moncton Center
01:33AM 44.3500 -59.2500 72° East 600 690 31,000  Level Moncton Center
01:33AM 44.3833 -59.0833 74° East 600 690 31,000  Level Gander Center
01:34AM 44.3833 -59.0333 90° East 600 690 31,000  Level Moncton Center
01:34AM 44.4333 -58.8500 69° East 600 690 31,000  Level Gander Center
01:35AM 44.4833 -58.6167 73° East 600 690 31,000  Level Gander Center
01:36AM 44.5167 -58.4000 78° East 600 690 31,000  Level Gander Center
01:37AM 44.5667 -58.1667 73° East 600 690 31,000  Level Gander Center
01:38AM 44.6167 -57.9500 72° East 600 690 31,000  Level Gander Center
01:39AM 44.6667 -57.7167 73° East 600 690 31,000  Level Gander Center
01:40AM 44.6667 -57.6667 90° East 600 690 31,000  Level Moncton Center
01:40AM 44.7167 -57.5000 67° East 600 690 31,000  Level Gander Center
01:41AM 44.7500 -57.2667 79° East 600 690 31,000  Level Gander Center
01:42AM 44.8000 -57.0500 72° East 600 690 31,000  Level Gander Center
01:43AM 44.8167 -56.9833 71° East 600 690 31,000  Level Moncton Center
01:44AM 44.8500 -56.7667 78° East 600 690 31,000  Level Moncton Center
01:44AM 44.8833 -56.6000 74° East 600 690 31,000  Level Gander Center
01:45AM 44.9333 -56.3667 73° East 600 690 31,000  Level Gander Center
01:46AM 44.9333 -56.3167 90° East 600 690 31,000  Level Moncton Center
01:47AM 44.9833 -56.0833 73° East 590 679 31,000  Level Moncton Center
01:48AM 45.0167 -55.8667 78° East 580 667 31,000  Level Moncton Center
01:49AM 45.0667 -55.6500 72° East 590 679 31,000 300 Level Moncton Center
01:54AM 45.3030 -54.4460 72° East 588 677 33,000 300 Climbing FlightAware
01:55AM 45.3330 -54.2910 75° East 588 677 33,000  Level FlightAware
01:56AM 45.3560 -54.1630 76° East 588 677 33,000  Level FlightAware
01:56AM 45.3800 -54.0360 75° East 588 677 33,000  Level FlightAware
01:57AM 45.4040 -53.9090 75° East 588 677 33,000  Level FlightAware
01:58AM 45.4280 -53.7820 75° East 588 677 33,000  Level FlightAware
01:58AM 45.4580 -53.6230 75° East 588 677 33,000  Level FlightAware
01:59AM 45.4820 -53.4950 75° East 588 677 33,000  Level FlightAware
02:00AM 45.5060 -53.3680 75° East 588 677 33,000  Level FlightAware
02:00AM 45.5300 -53.2400 75° East 588 677 33,000  Level FlightAware
02:01AM 45.5540 -53.1130 75° East 588 677 33,000  Level FlightAware
02:02AM 45.5840 -52.9530 75° East 588 677 33,000  Level FlightAware
02:03AM 45.6080 -52.8250 75° East 588 677 33,000  Level FlightAware
02:03AM 45.6310 -52.6980 75° East 588 677 33,000  Level FlightAware
02:04AM 45.6550 -52.5700 75° East 588 677 33,000  Level FlightAware
02:04AM 45.6667 -52.0833 75° East 580 667 33,000  Level Gander Center
02:05AM 45.7000 -51.8500 78° East 580 667 33,000  Level Gander Center
02:06AM 45.7333 -51.6333 77° East 580 667 33,000  Level Gander Center
02:07AM 45.7833 -51.3833 74° East 580 667 33,000  Level Gander Center
02:08AM 45.8167 -51.1833 76° East 580 667 33,000  Level Gander Center
02:09AM 45.8333 -50.9667 84° East 590 679 33,000  Level Gander Center
02:10AM 45.8667 -50.7167 79° East 580 667 33,000  Level Gander Center
02:11AM 45.9167 -50.5000 72° East 580 667 33,000  Level Gander Center
02:12AM 45.9333 -50.2667 84° East 590 679 33,000  Level Gander Center
02:13AM 45.9667 -50.0500 77° East 580 667 33,000  Level Gander Center
02:14AM 46.0167 -49.8167 73° East 580 667 33,000  Level Gander Center
02:15AM 46.0667 -49.5833 73° East 570 656 33,000  Level Gander Center
02:16AM 46.1167 -49.3833 70° East 570 656 33,000  Level Gander Center
02:17AM 46.0000 -50.0000 70° East 568 654 33,000  Level ETMS Enhanced Traffic Management System
02:17AM 46.1833 -49.1833 70° East 570 656 33,000  Level Gander Center
02:18AM 46.2167 -48.9667 77° East 570 656 33,000  Level Gander Center
02:19AM 46.2833 -48.7333 67° East 570 656 33,000  Level Gander Center
02:20AM 46.3167 -48.5333 76° East 570 656 33,000  Level Gander Center
02:21AM 46.3833 -48.3000 67° East 570 656 33,000  Level Gander Center
02:22AM 46.4167 -48.1000 76° East 570 656 33,000  Level Gander Center
02:23AM 46.4833 -47.8667 67° East 570 656 33,000  Level Gander Center
02:24AM 46.5333 -47.6667 70° East 570 656 33,000  Level Gander Center
02:25AM 46.5833 -47.4667 70° East 560 644 33,000  Level Gander Center
02:26AM 46.6167 -47.2333 78° East 560 644 33,000  Level Gander Center
02:27AM 46.6667 -47.0167 71° East 560 644 33,000  Level Gander Center
02:28AM 46.7167 -46.8167 70° East 560 644 33,000  Level Gander Center
02:31AM 46.8092 -46.4112 71° East  Level FlightAware Approximate
02:38AM 47.1136 -45.0162 73° East  Level FlightAware Approximate
02:39AM 47.1540 -44.8149 73° East  Level FlightAware Approximate
02:40AM 47.1941 -44.6132 74° East  Level FlightAware Approximate
02:41AM 47.2338 -44.4113 74° East  Level FlightAware Approximate
02:42AM 47.2731 -44.2091 74° East  Level FlightAware Approximate
02:43AM 47.3121 -44.0065 74° East  Level FlightAware Approximate
02:44AM 47.3508 -43.8037 74° East  Level FlightAware Approximate
02:45AM 47.3890 -43.6006 74° East  Level FlightAware Approximate
02:46AM 47.4270 -43.3971 75° East  Level FlightAware Approximate
02:47AM 47.4645 -43.1934 75° East  Level FlightAware Approximate
02:48AM 47.5017 -42.9894 75° East  Level FlightAware Approximate
02:49AM 47.5386 -42.7851 75° East  Level FlightAware Approximate
02:50AM 47.5751 -42.5805 75° East  Level FlightAware Approximate
02:51AM 47.6112 -42.3757 75° East  Level FlightAware Approximate
02:52AM 47.6469 -42.1705 75° East  Level FlightAware Approximate
02:53AM 47.6823 -41.9651 76° East  Level FlightAware Approximate
02:54AM 47.7173 -41.7594 76° East  Level FlightAware Approximate
02:55AM 47.7520 -41.5534 76° East  Level FlightAware Approximate
02:56AM 47.7863 -41.3472 76° East  Level FlightAware Approximate
02:57AM 47.8202 -41.1407 76° East  Level FlightAware Approximate
02:58AM 47.8537 -40.9339 76° East  Level FlightAware Approximate
02:59AM 47.8869 -40.7268 76° East  Level FlightAware Approximate
03:00AM 47.9197 -40.5195 77° East  Level FlightAware Approximate
03:01AM 47.9521 -40.3119 77° East  Level FlightAware Approximate
03:01AM 48.0000 -40.0000 78° East 560 644 33,000  Level ETMS Enhanced Traffic Management System
03:02AM 47.9841 -40.1041 77° East  Level FlightAware Approximate
03:03AM 48.0146 -39.8956 78° East  Level FlightAware Approximate
03:04AM 48.0434 -39.6865 78° East  Level FlightAware Approximate
03:05AM 48.0719 -39.4771 78° East  Level FlightAware Approximate
03:06AM 48.1000 -39.2675 79° East  Level FlightAware Approximate
03:07AM 48.1277 -39.0577 79° East  Level FlightAware Approximate
03:08AM 48.2805 -37.9422 79° East 560 644 33,000  Level FlightAware Transoceanic
03:09AM 48.3094 -37.7122 79° East 560 644 33,000  Level FlightAware Transoceanic
03:10AM 48.3378 -37.4819 80° East 560 644 33,000  Level FlightAware Transoceanic
03:11AM 48.3658 -37.2514 80° East 560 644 33,000  Level FlightAware Transoceanic
03:12AM 48.3933 -37.0206 80° East 560 644 33,000  Level FlightAware Transoceanic
03:13AM 48.4203 -36.7896 80° East 560 644 33,000  Level FlightAware Transoceanic
03:14AM 48.4469 -36.5583 80° East 560 644 33,000  Level FlightAware Transoceanic
03:15AM 48.4730 -36.3268 80° East 560 644 33,000  Level FlightAware Transoceanic
03:16AM 48.4987 -36.0951 81° East 560 644 33,000  Level FlightAware Transoceanic
03:17AM 48.5239 -35.8631 81° East 560 644 33,000  Level FlightAware Transoceanic
03:18AM 48.5486 -35.6309 81° East 560 644 33,000  Level FlightAware Transoceanic
03:19AM 48.5729 -35.3985 81° East 560 644 33,000  Level FlightAware Transoceanic
03:20AM 48.5966 -35.1659 81° East 560 644 33,000  Level FlightAware Transoceanic
03:21AM 48.6200 -34.9330 81° East 560 644 33,000  Level FlightAware Transoceanic
03:22AM 48.6428 -34.6999 82° East 560 644 33,000  Level FlightAware Transoceanic
03:23AM 48.6652 -34.4666 82° East 560 644 33,000  Level FlightAware Transoceanic
03:24AM 48.6871 -34.2331 82° East 560 644 33,000  Level FlightAware Transoceanic
03:25AM 48.7085 -33.9995 82° East 560 644 33,000  Level FlightAware Transoceanic
03:26AM 48.7295 -33.7656 82° East 560 644 33,000  Level FlightAware Transoceanic
03:27AM 48.7500 -33.5315 83° East 560 644 33,000  Level FlightAware Transoceanic
03:28AM 48.7700 -33.2972 83° East 560 644 33,000  Level FlightAware Transoceanic
03:29AM 48.7895 -33.0628 83° East 560 644 33,000  Level FlightAware Transoceanic
03:30AM 48.8086 -32.8281 83° East 560 644 33,000  Level FlightAware Transoceanic
03:31AM 48.8272 -32.5933 83° East 560 644 33,000  Level FlightAware Transoceanic
03:32AM 48.8453 -32.3583 83° East 560 644 33,000  Level FlightAware Transoceanic
03:33AM 48.8629 -32.1232 84° East 560 644 33,000  Level FlightAware Transoceanic
03:34AM 48.8801 -31.8879 84° East 560 644 33,000  Level FlightAware Transoceanic
03:35AM 48.8968 -31.6524 84° East 560 644 33,000  Level FlightAware Transoceanic
03:36AM 48.9129 -31.4168 84° East 560 644 33,000  Level FlightAware Transoceanic
03:37AM 48.9287 -31.1810 84° East 560 644 33,000  Level FlightAware Transoceanic
03:38AM 48.9439 -30.9451 84° East 560 644 33,000  Level FlightAware Transoceanic
03:39AM 48.9586 -30.7090 85° East 560 644 33,000  Level FlightAware Transoceanic
03:40AM 48.9729 -30.4728 85° East 560 644 33,000  Level FlightAware Transoceanic
03:41AM 48.9867 -30.2365 85° East 560 644 33,000  Level FlightAware Transoceanic
03:42AM 48.9989 -30.0196 85° East  Level FlightAware Approximate
03:43AM 49.0108 -29.8027 85° East  Level FlightAware Approximate
03:44AM 49.0249 -29.8258 78° East  Level FlightAware Approximate
03:45AM 49.0550 -29.6128 78° East  Level FlightAware Approximate
03:45AM 49.0000 -30.0000 77° East 549 632 33,000  Level ETMS Enhanced Traffic Management System
03:46AM 49.0846 -29.3996 78° East  Level FlightAware Approximate
03:47AM 49.1139 -29.1865 78° East  Level FlightAware Approximate
03:48AM 49.1427 -28.9731 78° East  Level FlightAware Approximate
03:49AM 49.1712 -28.7595 78° East  Level FlightAware Approximate
03:50AM 49.1992 -28.5457 79° East  Level FlightAware Approximate
03:51AM 49.2801 -27.9434 79° East 549 632 33,000  Level FlightAware Transoceanic
03:52AM 49.3090 -27.7135 79° East 549 632 33,000  Level FlightAware Transoceanic
03:53AM 49.3374 -27.4833 79° East 549 632 33,000  Level FlightAware Transoceanic
03:54AM 49.3653 -27.2529 80° East 549 632 33,000  Level FlightAware Transoceanic
03:55AM 49.3928 -27.0222 80° East 549 632 33,000  Level FlightAware Transoceanic
03:56AM 49.4199 -26.7912 80° East 549 632 33,000  Level FlightAware Transoceanic
03:57AM 49.4464 -26.5600 80° East 549 632 33,000  Level FlightAware Transoceanic
03:58AM 49.4725 -26.3285 80° East 549 632 33,000  Level FlightAware Transoceanic
03:59AM 49.4982 -26.0968 80° East 549 632 33,000  Level FlightAware Transoceanic
04:00AM 49.5234 -25.8649 81° East 549 632 33,000  Level FlightAware Transoceanic
04:01AM 49.5481 -25.6327 81° East 549 632 33,000  Level FlightAware Transoceanic
04:02AM 49.5723 -25.4003 81° East 549 632 33,000  Level FlightAware Transoceanic
04:03AM 49.5961 -25.1676 81° East 549 632 33,000  Level FlightAware Transoceanic
04:04AM 49.6194 -24.9348 81° East 549 632 33,000  Level FlightAware Transoceanic
04:05AM 49.6423 -24.7017 81° East 549 632 33,000  Level FlightAware Transoceanic
04:06AM 49.6647 -24.4684 82° East 549 632 33,000  Level FlightAware Transoceanic
04:07AM 49.6866 -24.2348 82° East 549 632 33,000  Level FlightAware Transoceanic
04:08AM 49.7080 -24.0011 82° East 549 632 33,000  Level FlightAware Transoceanic
04:09AM 49.7290 -23.7672 82° East 549 632 33,000  Level FlightAware Transoceanic
04:10AM 49.7495 -23.5330 82° East 549 632 33,000  Level FlightAware Transoceanic
04:11AM 49.7695 -23.2987 83° East 549 632 33,000  Level FlightAware Transoceanic
04:12AM 49.7891 -23.0642 83° East 549 632 33,000  Level FlightAware Transoceanic
04:13AM 49.8082 -22.8295 83° East 549 632 33,000  Level FlightAware Transoceanic
04:14AM 49.8268 -22.5946 83° East 549 632 33,000  Level FlightAware Transoceanic
04:15AM 49.8449 -22.3595 83° East 549 632 33,000  Level FlightAware Transoceanic
04:16AM 49.8626 -22.1243 83° East 549 632 33,000  Level FlightAware Transoceanic
04:17AM 49.8798 -21.8889 84° East 549 632 33,000  Level FlightAware Transoceanic
04:18AM 49.8965 -21.6533 84° East 549 632 33,000  Level FlightAware Transoceanic
04:19AM 49.9127 -21.4176 84° East 549 632 33,000  Level FlightAware Transoceanic
04:20AM 49.9284 -21.1817 84° East 549 632 33,000  Level FlightAware Transoceanic
04:21AM 49.9437 -20.9456 84° East 549 632 33,000  Level FlightAware Transoceanic
04:22AM 49.9585 -20.7094 85° East 549 632 33,000  Level FlightAware Transoceanic
04:23AM 49.9728 -20.4731 85° East 549 632 33,000  Level FlightAware Transoceanic
04:24AM 49.9866 -20.2366 85° East 549 632 33,000  Level FlightAware Transoceanic
04:25AM 49.9991 -20.0157 85° East  Level FlightAware Approximate
04:26AM 50.0112 -19.7947 85° East  Level FlightAware Approximate
04:27AM 50.0095 -19.8103 85° East  Level FlightAware Approximate
04:28AM 50.0202 -19.5891 86° East  Level FlightAware Approximate
04:29AM 50.0304 -19.3677 86° East  Level FlightAware Approximate
04:30AM 50.0402 -19.1463 86° East  Level FlightAware Approximate
04:31AM 50.0496 -18.9248 86° East  Level FlightAware Approximate
04:32AM 50.0586 -18.7032 86° East  Level FlightAware Approximate
04:33AM 50.0672 -18.4815 86° East  Level FlightAware Approximate
04:34AM 50.0753 -18.2598 87° East  Level FlightAware Approximate
04:35AM 50.0830 -18.0380 87° East  Level FlightAware Approximate
04:36AM 50.0903 -17.8161 87° East  Level FlightAware Approximate
04:37AM 50.0972 -17.5941 87° East  Level FlightAware Approximate
04:38AM 50.1039 -17.3721 87° East  Level FlightAware Approximate
04:39AM 50.1102 -17.1500 87° East  Level FlightAware Approximate
04:40AM 50.1162 -16.9279 88° East  Level FlightAware Approximate
04:41AM 50.1217 -16.7057 88° East  Level FlightAware Approximate
04:42AM 50.1268 -16.4835 88° East  Level FlightAware Approximate
04:43AM 50.1315 -16.2613 88° East  Level FlightAware Approximate
04:44AM 50.1357 -16.0390 88° East  Level FlightAware Approximate
04:45AM 50.1396 -15.8166 88° East  Level FlightAware Approximate
04:46AM 50.1430 -15.5943 89° East  Level FlightAware Approximate
04:47AM 50.1460 -15.3719 89° East  Level FlightAware Approximate
04:48AM 50.1485 -15.1494 89° East  Level FlightAware Approximate
04:49AM 50.1506 -14.9270 89° East  Level FlightAware Approximate
04:50AM 50.1522 -14.7045 89° East  Level FlightAware Approximate
04:51AM 50.1533 -14.4820 89° East  Level FlightAware Approximate
04:52AM 50.1541 -14.2595 90° East  Level FlightAware Approximate
04:53AM 50.1544 -14.0370 90° East  Level FlightAware Approximate
04:54AM 50.1543 -13.8145 90° East  Level FlightAware Approximate
04:55AM 50.1537 -13.5920 90° East  Level FlightAware Approximate
04:56AM 50.1527 -13.3695 90° East  Level FlightAware Approximate
04:57AM 50.1513 -13.1470 90° East  Level FlightAware Approximate
04:58AM 50.1495 -12.9246 91° East  Level FlightAware Approximate
04:59AM 50.1473 -12.7022 91° East  Level FlightAware Approximate
05:00AM 50.1446 -12.4797 91° East  Level FlightAware Approximate
05:01AM 50.1415 -12.2573 91° East  Level FlightAware Approximate
05:02AM 50.1380 -12.0350 91° East  Level FlightAware Approximate
05:03AM 50.1340 -11.8126 92° East  Level FlightAware Approximate
05:04AM 50.1297 -11.5904 92° East  Level FlightAware Approximate
05:05AM 50.1249 -11.3681 92° East  Level FlightAware Approximate
05:06AM 50.1196 -11.1459 92° East  Level FlightAware Approximate
05:06AM 50.2220 -10.7450 92° East 555 639 35,000  Level FlightAware
05:07AM 50.1140 -10.9238 92° East  Level FlightAware Approximate
05:07AM 50.2290 -10.5860 86° East 552 635 35,000  Level FlightAware
05:08AM 50.2380 -10.3740 86° East 547 629 35,000  Level FlightAware
05:08AM 50.2440 -10.2300 86° East 547 629 35,000  Level FlightAware
05:09AM 50.2520 -10.0330 86° East 545 627 35,000  Level FlightAware
05:10AM 50.2580 -9.8820 86° East 545 627 35,000  Level FlightAware
05:11AM 50.2640 -9.7010 87° East 544 626 35,000  Level FlightAware
05:11AM 50.2770 -9.5450 83° East 557 641 35,000  Level FlightAware
05:12AM 50.3010 -9.3640 78° East 555 639 35,000  Level FlightAware
05:13AM 50.3200 -9.2080 79° East 555 639 35,000  Level FlightAware
05:13AM 50.3400 -9.0350 80° East 553 636 35,000 -1,440 Level FlightAware
05:14AM 50.3435 -8.9399 80° East 486 559 33,500  Descending FlightAware UK
05:14AM 50.3550 -8.9020 80° East 552 635 35,000  Climbing FlightAware
05:14AM 50.3512 -8.8692 80° East 486 559 33,500 -4,500 Descending FlightAware UK
05:14AM 50.3589 -8.7984 80° East 488 562 33,500  Level FlightAware UK
05:15AM 50.3666 -8.7275 80° East 486 559 33,500 3,000 Level FlightAware UK
05:15AM 50.3770 -8.6990 80° East 552 635 35,000  Climbing FlightAware
05:15AM 50.3789 -8.6096 80° East 486 559 33,500 -2,520 Descending FlightAware UK
05:15AM 50.3861 -8.5387 81° East 484 557 33,500 4,080 Level FlightAware UK
05:15AM 50.3930 -8.5410 81° East 552 635 35,000  Climbing FlightAware
05:16AM 50.3958 -8.4443 81° East 486 559 33,500 -2,400 Descending FlightAware UK
05:16AM 50.4030 -8.3733 81° East 486 559 33,500 4,500 Level FlightAware UK
05:16AM 50.4100 -8.3800 81° East 552 635 35,000  Climbing FlightAware
05:16AM 50.4103 -8.3024 81° East 484 557 33,500 -2,700 Descending FlightAware UK
05:17AM 50.4178 -8.2315 81° East 486 559 33,500 3,060 Level FlightAware UK
05:17AM 50.4270 -8.2110 81° East 554 638 35,000  Climbing FlightAware
05:17AM 50.4300 -8.1121 81° East 486 559 33,500 -2,460 Descending FlightAware UK
05:18AM 50.4372 -8.0409 81° East 488 562 33,500 4,260 Level FlightAware UK
05:18AM 50.4440 -8.0480 81° East 553 636 35,000  Climbing FlightAware
05:18AM 50.4445 -7.9695 81° East 490 564 33,500 -2,760 Descending FlightAware UK
05:18AM 50.4518 -7.8982 81° East 488 562 33,500 3,600 Level FlightAware UK
05:18AM 50.4600 -7.8960 81° East 555 639 35,000  Climbing FlightAware
05:19AM 50.4620 -7.8031 81° East 490 564 33,500 -2,580 Descending FlightAware UK
05:19AM 50.4697 -7.7318 80° East 490 564 33,500 3,180 Level FlightAware UK
05:19AM 50.4790 -7.7170 80° East 555 639 35,000  Climbing FlightAware
05:19AM 50.4825 -7.6130 80° East 490 564 33,500 -2,400 Descending FlightAware UK
05:20AM 50.4899 -7.5417 81° East 488 562 33,500 4,500 Level FlightAware UK
05:20AM 50.4960 -7.5590 81° East 554 638 35,000  Climbing FlightAware
05:20AM 50.4971 -7.4704 81° East 488 562 33,500 -2,700 Descending FlightAware UK
05:20AM 50.5044 -7.3991 81° East 490 564 33,500 3,060 Level FlightAware UK
05:20AM 50.5150 -7.3740 81° East 553 636 35,000  Climbing FlightAware
05:21AM 50.5163 -7.2803 81° East 490 564 33,500 -2,460 Descending FlightAware UK
05:21AM 50.5235 -7.2090 81° East 490 564 33,500 4,260 Level FlightAware UK
05:21AM 50.5310 -7.2140 81° East 553 636 35,000  Climbing FlightAware
05:21AM 50.5308 -7.1378 81° East 490 564 33,500 -2,760 Descending FlightAware UK
05:22AM 50.5379 -7.0666 81° East 488 562 33,500 3,600 Level FlightAware UK
05:22AM 50.5460 -7.0630 81° East 552 635 35,000  Climbing FlightAware
05:22AM 50.5473 -6.9709 81° East 484 557 33,500 -2,580 Descending FlightAware UK
05:22AM 50.5541 -6.8996 81° East 488 562 33,500 3,180 Level FlightAware UK
05:22AM 50.5640 -6.8790 81° East 553 636 35,000  Climbing FlightAware
05:23AM 50.5653 -6.7808 81° East 488 562 33,500 -2,400 Descending FlightAware UK
05:23AM 50.5720 -6.7095 82° East 488 562 33,500 4,500 Level FlightAware UK
05:23AM 50.5790 -6.7220 82° East 554 638 35,000  Climbing FlightAware
05:23AM 50.5789 -6.6382 82° East 488 562 33,500 -2,700 Descending FlightAware UK
05:24AM 50.5857 -6.5668 81° East 488 562 33,500 3,060 Level FlightAware UK
05:24AM 50.5960 -6.5440 81° East 553 636 35,000  Climbing FlightAware
05:24AM 50.5969 -6.4476 81° East 486 559 33,500 -2,460 Descending FlightAware UK
05:25AM 50.6032 -6.3760 82° East 488 562 33,500 4,260 Level FlightAware UK
05:25AM 50.6110 -6.3780 82° East 554 638 35,000  Climbing FlightAware
05:25AM 50.6098 -6.3044 82° East 486 559 33,500 -2,760 Descending FlightAware UK
05:25AM 50.6164 -6.2328 82° East 488 562 33,500 3,600 Level FlightAware UK
05:25AM 50.6250 -6.2240 82° East 554 638 35,000  Climbing FlightAware
05:26AM 50.6252 -6.1374 82° East 488 562 33,500 -2,580 Descending FlightAware UK
05:26AM 50.6317 -6.0658 82° East 486 559 33,500 3,180 Level FlightAware UK
05:26AM 50.6420 -6.0360 82° East 554 638 35,000  Climbing FlightAware
05:26AM 50.6422 -5.9464 82° East 484 557 33,500 -2,400 Descending FlightAware UK
05:27AM 50.6485 -5.8739 82° East 484 557 33,500 4,500 Level FlightAware UK
05:27AM 50.6560 -5.8770 82° East 555 639 35,000  Climbing FlightAware
05:27AM 50.6547 -5.8020 82° East 488 562 33,500 -2,700 Descending FlightAware UK
05:27AM 50.6609 -5.7302 82° East 492 566 33,500 3,060 Level FlightAware UK
05:27AM 50.6710 -5.7020 82° East 553 636 35,000  Climbing FlightAware
05:28AM 50.6713 -5.6105 82° East 484 557 33,500 -2,460 Descending FlightAware UK
05:28AM 50.6775 -5.5387 82° East 486 559 33,500 4,260 Level FlightAware UK
05:28AM 50.6850 -5.5410 82° East 554 638 35,000  Climbing FlightAware
05:28AM 50.6836 -5.4669 82° East 486 559 33,500 -2,760 Descending FlightAware UK
05:29AM 50.6894 -5.3950 83° East 486 559 33,500 3,600 Level FlightAware UK
05:29AM 50.6990 -5.3820 83° East 555 639 35,000  Climbing FlightAware
05:29AM 50.6991 -5.2751 83° East 490 564 33,500 -2,220 Descending FlightAware UK
05:29AM 50.7051 -5.2030 83° East 494 568 33,500 4,080 Level FlightAware UK
05:29AM 50.7140 -5.1940 83° East 555 639 35,000  Climbing FlightAware
05:30AM 50.7132 -5.1063 83° East 490 564 33,500 -2,400 Descending FlightAware UK
05:30AM 50.7193 -5.0344 82° East 492 566 33,500 4,500 Level FlightAware UK
05:30AM 50.7260 -5.0430 82° East 553 636 35,000  Climbing FlightAware
05:30AM 50.7250 -4.9626 82° East 490 564 33,500 -2,700 Descending FlightAware UK
05:31AM 50.7305 -4.8910 83° East 496 571 33,500 3,060 Level FlightAware UK
05:31AM 50.7410 -4.8620 83° East 550 633 35,000  Climbing FlightAware
05:31AM 50.7398 -4.7727 83° East 492 566 33,500 -2,460 Descending FlightAware UK
05:32AM 50.7454 -4.7007 83° East 490 564 33,500 4,260 Level FlightAware UK
05:32AM 50.7530 -4.7040 83° East 546 628 35,000  Climbing FlightAware
05:32AM 50.7508 -4.6297 83° East 486 559 33,500  Descending FlightAware UK
05:32AM 50.7608 -4.6054 83° East 547 629 35,000  Climbing FlightAware ADS-B
05:32AM 50.7581 -4.5352 83° East 486 559 33,500  Descending FlightAware UK
05:32AM 50.7701 -4.4823 83° East 549 632 35,000 1,860 Climbing FlightAware ADS-B
05:33AM 50.7799 -4.3528 83° East 549 632 35,000 -1,560 Level FlightAware ADS-B
05:33AM 50.7792 -4.2502 83° East 490 564 33,500  Descending FlightAware UK
05:34AM 50.7890 -4.2297 83° East 548 631 35,000 2,460 Climbing FlightAware ADS-B
05:34AM 50.7976 -4.1086 84° East 546 628 35,000 -1,860 Level FlightAware ADS-B
05:34AM 50.7947 -4.0355 84° East 488 562 33,500  Descending FlightAware UK
05:35AM 50.8087 -3.9540 84° East 544 626 35,000  Climbing FlightAware ADS-B
05:35AM 50.8049 -3.8938 84° East 490 564 33,500  Descending FlightAware UK
05:35AM 50.8175 -3.8290 84° East 545 627 35,000  Climbing FlightAware ADS-B
05:36AM 50.8163 -3.7281 84° East 482 555 33,500  Descending FlightAware UK
05:36AM 50.8267 -3.6927 84° East 548 631 35,000  Climbing FlightAware ADS-B
05:36AM 50.8242 -3.6093 84° East 484 557 33,500  Descending FlightAware UK
05:36AM 50.8350 -3.5720 84° East 549 632 35,000  Climbing FlightAware ADS-B
05:37AM 50.8325 -3.4894 84° East 486 559 33,500  Descending FlightAware UK
05:37AM 50.8450 -3.4201 84° East 548 631 35,000  Climbing FlightAware ADS-B
05:37AM 50.8419 -3.3461 84° East 484 557 33,500 -2,460 Descending FlightAware UK
05:38AM 50.8466 -3.2745 84° East 486 559 33,500 3,180 Level FlightAware UK
05:38AM 50.8572 -3.2346 84° East 549 632 35,000 2,220 Climbing FlightAware ADS-B
05:38AM 50.8651 -3.1114 84° East 550 633 35,000 -1,620 Level FlightAware ADS-B
05:39AM 50.8636 -3.0108 84° East 490 564 33,500  Descending FlightAware UK
05:39AM 50.8740 -2.9676 84° East 550 633 35,000  Climbing FlightAware ADS-B
05:39AM 50.8722 -2.8679 84° East 490 564 33,500  Descending FlightAware UK
05:39AM 50.8822 -2.8327 84° East 548 631 35,000  Climbing FlightAware ADS-B
05:40AM 50.8794 -2.7477 84° East 486 559 33,500  Descending FlightAware UK
05:40AM 50.8896 -2.7102 84° East 547 629 35,000  Climbing FlightAware ADS-B
05:40AM 50.8867 -2.6284 84° East 488 562 33,500  Descending FlightAware UK
05:40AM 50.8968 -2.5877 84° East 548 631 35,000  Climbing FlightAware ADS-B
05:41AM 50.8936 -2.5091 84° East 488 562 33,500  Descending FlightAware UK
05:41AM 50.9038 -2.4674 84° East 549 632 35,000  Climbing FlightAware ADS-B
05:41AM 50.9006 -2.3887 84° East 488 562 33,500  Descending FlightAware UK
05:41AM 50.9109 -2.3450 84° East 551 634 35,000 2,220 Climbing FlightAware ADS-B
05:42AM 50.9176 -2.2243 85° East 551 634 35,000  Level FlightAware ADS-B
05:42AM 50.9246 -2.0961 85° East 551 634 35,000  Level FlightAware ADS-B
05:43AM 50.9316 -1.9673 85° East 549 632 35,000 -1,920 Level FlightAware ADS-B
05:43AM 50.9270 -1.9069 85° East 486 559 33,500  Descending FlightAware UK
05:43AM 50.9380 -1.8454 85° East 548 631 35,000 1,980 Climbing FlightAware ADS-B
05:44AM 50.9442 -1.7240 85° East 549 632 35,000 -1,980 Level FlightAware ADS-B
05:44AM 50.9394 -1.6668 85° East 486 559 33,500  Descending FlightAware UK
05:45AM 50.9505 -1.5982 85° East 549 632 35,000  Climbing FlightAware ADS-B
05:45AM 50.9468 -1.5223 85° East 486 559 33,500  Descending FlightAware UK
05:45AM 50.9565 -1.4775 85° East 548 631 35,000  Climbing FlightAware ADS-B
05:45AM 50.9526 -1.4026 85° East 484 557 33,500  Descending FlightAware UK
05:46AM 50.9624 -1.3553 85° East 547 629 35,000 2,040 Climbing FlightAware ADS-B
05:46AM 50.9701 -1.2203 85° East 550 633 35,000 -1,800 Level FlightAware ADS-B
05:46AM 50.9668 -1.1616 85° East 486 559 33,500  Descending FlightAware UK
05:47AM 50.9785 -1.0976 85° East 550 633 35,000  Climbing FlightAware ADS-B
05:47AM 50.9751 -1.0416 85° East 484 557 33,500  Descending FlightAware UK
05:47AM 50.9868 -0.9758 85° East 551 634 35,000 1,920 Climbing FlightAware ADS-B
05:48AM 50.9948 -0.8530 84° East 552 635 35,000 -1,800 Level FlightAware ADS-B
05:48AM 50.9924 -0.7762 84° East 484 557 33,500  Descending FlightAware UK
05:48AM 51.0023 -0.7319 84° East 553 636 35,000  Climbing FlightAware ADS-B
05:48AM 50.9998 -0.6557 84° East 488 562 33,500  Descending FlightAware UK
05:49AM 51.0098 -0.6096 84° East 553 636 35,000 2,160 Climbing FlightAware ADS-B
05:49AM 51.0173 -0.4849 84° East 553 636 35,000  Level FlightAware ADS-B
05:50AM 51.0247 -0.3574 85° East 552 635 35,000  Level FlightAware ADS-B
05:50AM 51.0317 -0.2325 85° East 549 632 35,000 -1,920 Level FlightAware ADS-B
05:50AM 51.0282 -0.1705 85° East 486 559 33,500  Descending FlightAware UK
05:51AM 51.0389 -0.1068 85° East 547 629 35,000 1,980 Climbing FlightAware ADS-B
05:51AM 51.0456 0.0144 85° East 546 628 35,000 -1,980 Level FlightAware ADS-B
05:51AM 51.0416 0.0699 85° East 482 555 33,500  Descending FlightAware UK
05:52AM 51.0521 0.1350 85° East 548 631 35,000  Climbing FlightAware ADS-B
05:52AM 51.0480 0.1896 85° East 486 559 33,500  Descending FlightAware UK
05:52AM 51.0588 0.2620 85° East 550 633 35,000 1,860 Climbing FlightAware ADS-B
05:53AM 51.0653 0.3857 85° East 551 634 35,000  Level FlightAware ADS-B
05:53AM 51.0719 0.5115 85° East 551 634 35,000 -1,860 Level FlightAware ADS-B
05:54AM 51.0683 0.5776 85° East 490 564 33,500  Descending FlightAware UK
05:54AM 51.0779 0.6325 85° East 549 632 35,000  Climbing FlightAware ADS-B
05:54AM 51.0741 0.6982 85° East 490 564 33,500  Descending FlightAware UK
05:54AM 51.0842 0.7619 85° East 548 631 35,000  Climbing FlightAware ADS-B
05:55AM 51.0801 0.8193 85° East 490 564 33,500  Descending FlightAware UK
05:55AM 51.0904 0.8900 85° East 548 631 35,000  Climbing FlightAware ADS-B
05:55AM 51.0869 0.9635 85° East 488 562 33,500  Descending FlightAware UK
05:55AM 51.0962 1.0148 85° East 546 628 35,000  Climbing FlightAware ADS-B
05:56AM 51.0925 1.0836 85° East 488 562 33,500  Descending FlightAware UK
05:56AM 51.1026 1.1513 85° East 547 629 35,000  Climbing FlightAware ADS-B
05:56AM 51.0991 1.2285 85° East 490 564 33,500  Descending FlightAware UK
05:56AM 51.1080 1.2780 85° East 546 628 35,000  Climbing FlightAware
05:57AM 51.1056 1.3727 85° East 490 564 33,500 -2,160 Descending FlightAware UK
05:57AM 51.1088 1.4449 86° East 490 564 33,500 4,260 Level FlightAware UK
05:57AM 51.1150 1.4350 86° East 546 628 35,000  Climbing FlightAware
05:57AM 51.1117 1.5177 86° East 488 562 33,500 -2,340 Descending FlightAware UK
05:58AM 51.1156 1.6130 86° East 490 564 33,500 3,000 Level FlightAware UK
05:58AM 51.1240 1.6340 86° East 546 628 35,000  Climbing FlightAware
05:58AM 51.1194 1.7098 86° East 492 566 33,500  Descending FlightAware UK
05:59AM 51.1070 1.8410 86° East 520 598 35,000  Climbing FlightAware
05:59AM 51.0808 1.9082 86° East 490 564 33,500  Descending FlightAware UK
05:59AM 51.0721 1.9674 86° East 516 594 35,000  Climbing FlightAware ADS-B
06:00AM 51.0439 2.0314 86° East 488 562 33,500  Descending FlightAware UK
06:00AM 51.0310 2.0985 86° East 513 590 35,000  Climbing FlightAware ADS-B
06:00AM 50.9987 2.1732 86° East 488 562 33,500 -2,220 Descending FlightAware UK
06:01AM 50.9801 2.2343 116° Southeast 488 562 33,500 3,600 Level FlightAware UK
06:01AM 50.9880 2.2410 116° Southeast 514 592 35,000 3,600 Climbing FlightAware
06:01AM 50.9628 2.3243 116° Southeast 515 593 35,000 -2,220 Level FlightAware ADS-B
06:02AM 50.9312 2.3989 116° Southeast 488 562 33,500  Descending FlightAware UK
06:02AM 50.9290 2.4370 116° Southeast 514 592 35,000  Climbing FlightAware
06:02AM 50.8951 2.5222 116° Southeast 486 559 33,500  Descending FlightAware UK
06:02AM 50.8880 2.5760 116° Southeast 515 593 35,000  Climbing FlightAware
06:03AM 50.8586 2.6451 116° Southeast 488 562 33,500  Descending FlightAware UK
06:03AM 50.8470 2.7140 116° Southeast 516 594 35,000  Climbing FlightAware
06:04AM 50.8038 2.8300 116° Southeast 490 564 33,500  Descending FlightAware UK
06:04AM 50.8010 2.8690 116° Southeast 516 594 35,000  Climbing FlightAware
06:04AM 50.7732 2.9336 116° Southeast 488 562 33,500  Descending FlightAware UK
06:05AM 50.7600 3.0050 116° Southeast 516 594 35,000  Climbing FlightAware
06:05AM 50.7296 3.0765 116° Southeast 486 559 33,500  Descending FlightAware UK
06:05AM 50.7130 3.1580 116° Southeast 516 594 35,000  Climbing FlightAware
06:06AM 50.6857 3.2189 116° Southeast 486 559 33,500 -2,580 Descending FlightAware UK
06:06AM 50.6669 3.2799 116° Southeast 488 562 33,500 3,900 Level FlightAware UK
06:06AM 50.6760 3.2800 116° Southeast 516 594 35,000  Climbing FlightAware
06:06AM 50.6420 3.3614 116° Southeast 488 562 33,500 -2,460 Descending FlightAware UK
06:07AM 50.6230 3.4231 116° Southeast 486 559 33,500 3,420 Level FlightAware UK
06:07AM 50.6250 3.4430 116° Southeast 517 595 35,000  Climbing FlightAware
06:07AM 50.5912 3.5246 116° Southeast 488 562 33,500  Descending FlightAware UK
06:07AM 50.5890 3.5600 116° Southeast 519 597 35,000  Climbing FlightAware
06:08AM 50.5527 3.6465 116° Southeast 488 562 33,500  Descending FlightAware UK
06:08AM 50.5350 3.7280 116° Southeast 519 597 35,000 1,320 Climbing FlightAware
06:09AM 50.4930 3.8600 117° Southeast 519 597 35,000  Level FlightAware
06:09AM 50.4530 3.9850 117° Southeast 519 597 35,000 -1,200 Level FlightAware
06:10AM 50.3951 4.1293 117° Southeast 1 1 33,500  Descending FlightAware UK
06:10AM 50.3990 4.1480 117° Southeast 519 597 35,000  Climbing FlightAware
06:11AM 50.3603 4.2276 117° Southeast 1 1 33,500  Descending FlightAware UK
06:11AM 50.3590 4.2760 117° Southeast 523 602 35,000  Climbing FlightAware
06:11AM 50.3239 4.3523 117° Southeast 1 1 33,500 -2,520 Descending FlightAware UK
06:11AM 50.3048 4.4133 116° Southeast 1 1 33,500 4,080 Level FlightAware UK
06:12AM 50.3130 4.4200 116° Southeast 520 598 35,000  Climbing FlightAware
06:12AM 50.2665 4.5366 116° Southeast 1 1 33,500  Descending FlightAware UK
06:12AM 50.2650 4.5700 116° Southeast 519 597 35,000 1,680 Climbing FlightAware
06:13AM 50.2210 4.7050 117° Southeast 518 596 35,000  Level FlightAware
06:14AM 50.1750 4.8500 116° Southeast 519 597 35,000  Level FlightAware
06:14AM 50.1310 4.9870 117° Southeast 520 598 35,000  Level FlightAware
06:15AM 50.0870 5.1220 117° Southeast 519 597 35,000  Level FlightAware
06:16AM 50.0410 5.2640 117° Southeast 520 598 35,000  Level FlightAware
06:16AM 49.9960 5.4010 117° Southeast 521 600 35,000  Level FlightAware
06:17AM 49.9450 5.5570 117° Southeast 521 600 35,000  Level FlightAware
06:18AM 49.9060 5.6740 117° Southeast 520 598 35,000  Level FlightAware
06:19AM 49.8570 5.8210 117° Southeast 521 600 35,000  Level FlightAware
06:19AM 49.8070 5.9680 118° Southeast 522 601 35,000  Level FlightAware
06:20AM 49.7660 6.0900 117° Southeast 523 602 35,000  Level FlightAware
06:21AM 49.7240 6.2150 117° Southeast 522 601 35,000  Level FlightAware
06:21AM 49.6670 6.3820 118° Southeast 522 601 35,000  Level FlightAware
06:22AM 49.6230 6.5100 118° Southeast 524 603 35,000  Level FlightAware
06:23AM 49.5760 6.6480 118° Southeast 525 604 35,000  Level FlightAware
06:23AM 49.5280 6.7870 118° Southeast 521 600 35,000  Level FlightAware
06:24AM 49.4860 6.9060 118° Southeast 522 601 35,000  Level FlightAware
06:25AM 49.4370 7.0470 118° Southeast 522 601 35,000  Level FlightAware
06:26AM 49.3750 7.2070 121° Southeast 527 606 35,000  Level FlightAware
06:26AM 49.3180 7.3340 125° Southeast 525 604 35,000  Level FlightAware
06:27AM 49.2620 7.4540 126° Southeast 526 605 35,000  Level FlightAware
06:28AM 49.1980 7.5870 126° Southeast 523 602 35,000  Level FlightAware
06:28AM 49.1370 7.7150 126° Southeast 523 602 35,000  Level FlightAware
06:29AM 49.0830 7.8240 127° Southeast 523 602 35,000  Level FlightAware
06:30AM 49.0140 7.9660 126° Southeast 523 602 35,000  Level FlightAware
06:30AM 48.9540 8.0880 127° Southeast 522 601 35,000  Level FlightAware
06:31AM 48.9000 8.1980 127° Southeast 522 601 35,000  Level FlightAware
06:32AM 48.8310 8.3360 127° Southeast 522 601 35,000  Level FlightAware
06:33AM 48.7780 8.4450 126° Southeast 523 602 35,000  Level FlightAware
06:33AM 48.7080 8.5850 127° Southeast 528 608 35,000  Level FlightAware
06:34AM 48.6450 8.7100 127° Southeast 529 609 35,000  Level FlightAware
06:35AM 48.5940 8.8120 127° Southeast 529 609 35,000  Level FlightAware
06:35AM 48.5360 8.9270 127° Southeast 529 609 35,000  Level FlightAware
06:36AM 48.4760 9.0440 128° Southeast 529 609 35,000  Level FlightAware
06:37AM 48.4170 9.1600 127° Southeast 529 609 35,000  Level FlightAware
06:37AM 48.3490 9.2930 128° Southeast 529 609 35,000  Level FlightAware
06:38AM 48.2910 9.4060 128° Southeast 530 610 35,000  Level FlightAware
06:39AM 48.2190 9.5160 134° Southeast 526 605 35,000  Level FlightAware
06:39AM 48.1360 9.6250 139° Southeast 533 613 35,000  Level FlightAware
06:40AM 48.0760 9.7020 139° Southeast 533 613 35,000  Level FlightAware
06:41AM 47.9870 9.8160 139° Southeast 534 615 35,000  Level FlightAware
06:42AM 47.8710 9.9630 140° Southeast 528 608 35,000  Level FlightAware
06:44AM 47.7395 10.2870 121° Southeast  Level Estimated
06:45AM 47.6654 10.4679 121° Southeast  Level Estimated
06:46AM 47.5910 10.6484 121° Southeast  Level Estimated
06:46AM 47.3840 10.4950 121° Southeast 538 619 35,000  Level FlightAware
06:47AM 47.2930 10.5720 150° Southeast 538 619 35,000  Level FlightAware
06:47AM 47.2150 10.6590 143° Southeast 538 619 35,000  Level FlightAware
06:48AM 47.1450 10.7620 135° Southeast 531 611 35,000  Level FlightAware
06:49AM 47.0570 10.8940 134° Southeast 536 617 35,000  Level FlightAware
06:49AM 46.9920 10.9920 134° Southeast 530 610 35,000  Level FlightAware
06:50AM 46.9190 11.1010 134° Southeast 529 609 35,000  Level FlightAware
06:51AM 46.8380 11.2200 135° Southeast 528 608 35,000  Level FlightAware
06:51AM 46.7680 11.3220 135° Southeast 529 609 35,000  Level FlightAware
06:52AM 46.6900 11.4370 135° Southeast 530 610 35,000  Level FlightAware
06:53AM 46.6250 11.5320 135° Southeast 531 611 35,000  Level FlightAware
06:53AM 46.5580 11.6300 135° Southeast 533 613 35,000  Level FlightAware
06:54AM 46.4930 11.7220 136° Southeast 533 613 35,000  Level FlightAware
06:55AM 46.4140 11.8360 135° Southeast 540 621 35,000  Level FlightAware
06:55AM 46.3460 11.9350 135° Southeast 540 621 35,000  Level FlightAware
06:56AM 46.2720 12.0400 136° Southeast 541 623 35,000  Level FlightAware
06:57AM 46.1930 12.1530 135° Southeast 540 621 35,000  Level FlightAware
06:58AM 46.1250 12.2610 132° Southeast 532 612 35,000  Level FlightAware
06:58AM 46.0550 12.3860 129° Southeast 533 613 35,000  Level FlightAware
06:59AM 45.9960 12.4970 127° Southeast 533 613 35,000  Level FlightAware
07:00AM 45.9340 12.6120 128° Southeast 534 615 35,000  Level FlightAware
07:00AM 45.8660 12.7380 128° Southeast 534 615 35,000  Level FlightAware
07:01AM 45.8040 12.8530 128° Southeast 534 615 35,000  Level FlightAware
07:02AM 45.7360 12.9800 127° Southeast 535 616 35,000  Level FlightAware
07:02AM 45.6740 13.0930 128° Southeast 536 617 35,000  Level FlightAware
07:03AM 45.5960 13.2370 128° Southeast 535 616 35,000  Level FlightAware
07:04AM 45.5240 13.3690 128° Southeast 535 616 35,000  Level FlightAware
07:05AM 45.4640 13.4790 128° Southeast 533 613 35,000  Level FlightAware
07:05AM 45.4010 13.5930 128° Southeast 533 613 35,000  Level FlightAware
07:06AM 45.3280 13.7240 128° Southeast 533 613 35,000  Level FlightAware
07:07AM 45.2740 13.8220 128° Southeast 533 613 35,000  Level FlightAware
07:08AM 45.1980 13.9580 128° Southeast 539 620 35,000  Level FlightAware
07:08AM 45.1350 14.0690 129° Southeast 539 620 35,000  Level FlightAware
07:09AM 45.0860 14.1560 129° Southeast 539 620 35,000  Level FlightAware
07:10AM 45.0020 14.3030 129° Southeast 539 620 35,000  Level FlightAware
07:10AM 44.9490 14.3960 129° Southeast 539 620 35,000  Level FlightAware
07:11AM 44.8740 14.5260 129° Southeast 539 620 35,000  Level FlightAware
07:12AM 44.8300 14.6030 129° Southeast 539 620 35,000  Level FlightAware
07:12AM 44.7540 14.7330 129° Southeast 538 619 35,000  Level FlightAware
07:13AM 44.7080 14.8120 129° Southeast 538 619 35,000  Level FlightAware
07:14AM 44.6210 14.9620 129° Southeast 538 619 35,000  Level FlightAware
07:14AM 44.5700 15.0500 129° Southeast 538 619 35,000  Level FlightAware
07:15AM 44.4860 15.1930 129° Southeast 537 618 35,000  Level FlightAware
07:16AM 44.4230 15.2990 130° Southeast 537 618 35,000  Level FlightAware
07:16AM 44.3700 15.3890 129° Southeast 532 612 35,000  Level FlightAware
07:17AM 44.2870 15.5280 130° Southeast 532 612 35,000  Level FlightAware
07:18AM 44.2220 15.6360 130° Southeast 536 617 35,000  Level FlightAware
07:19AM 44.1580 15.7440 130° Southeast 529 609 35,000  Level FlightAware
07:19AM 44.0910 15.8540 130° Southeast 529 609 35,000  Level FlightAware
07:20AM 44.0230 15.9670 130° Southeast 529 609 35,000  Level FlightAware
07:21AM 43.9520 16.0840 130° Southeast 529 609 35,000  Level FlightAware
07:21AM 43.8870 16.1890 131° Southeast 527 606 35,000  Level FlightAware
07:22AM 43.8180 16.3030 130° Southeast 528 608 35,000  Level FlightAware
07:23AM 43.7550 16.4050 131° Southeast 528 608 35,000  Level FlightAware
07:24AM 43.6890 16.5120 130° Southeast 528 608 35,000  Level FlightAware
07:24AM 43.6150 16.6320 130° Southeast 527 606 35,000  Level FlightAware
07:25AM 43.5530 16.7310 131° Southeast 528 608 35,000  Level FlightAware
07:26AM 43.4760 16.8540 131° Southeast 529 609 35,000  Level FlightAware
07:26AM 43.4170 16.9490 131° Southeast 530 610 35,000  Level FlightAware
07:27AM 43.3500 17.0560 131° Southeast 530 610 35,000  Level FlightAware
07:28AM 43.2820 17.1630 131° Southeast 535 616 35,000  Level FlightAware
07:28AM 43.2130 17.2730 131° Southeast 535 616 35,000  Level FlightAware
07:29AM 43.1390 17.3880 131° Southeast 527 606 35,000  Level FlightAware
07:30AM 43.0750 17.4890 131° Southeast 527 606 35,000  Level FlightAware
07:30AM 43.0190 17.5770 131° Southeast 527 606 35,000  Level FlightAware
07:31AM 42.9610 17.6670 131° Southeast 526 605 35,000  Level FlightAware
07:32AM 42.9060 17.7540 131° Southeast 524 603 35,000  Level FlightAware
07:32AM 42.8390 17.8570 132° Southeast 530 610 35,000  Level FlightAware
07:33AM 42.7860 17.9390 131° Southeast 530 610 35,000  Level FlightAware
07:34AM 42.6840 18.0970 131° Southeast 531 611 35,000  Level FlightAware
07:35AM 42.6100 18.2090 132° Southeast 529 609 35,000  Level FlightAware
07:35AM 42.5430 18.3070 133° Southeast 532 612 35,000  Level FlightAware
07:36AM 42.4670 18.4100 135° Southeast 533 613 35,000  Level FlightAware
07:37AM 42.3970 18.5050 135° Southeast 534 615 35,000  Level FlightAware
07:37AM 42.3150 18.6150 135° Southeast 535 616 35,000  Level FlightAware
07:38AM 42.2620 18.6850 136° Southeast 536 617 35,000  Level FlightAware
07:39AM 42.1740 18.8030 135° Southeast 537 618 35,000  Level FlightAware
07:39AM 42.1130 18.8830 136° Southeast 537 618 35,000  Level FlightAware
07:40AM 42.0500 18.9670 135° Southeast 540 621 35,000  Level FlightAware
07:41AM 41.9960 19.0380 136° Southeast 540 621 35,000  Level FlightAware
07:41AM 41.9080 19.1550 135° Southeast 542 624 35,000  Level FlightAware
07:42AM 41.8550 19.2250 135° Southeast 543 625 35,000  Level FlightAware
07:42AM 41.7800 19.3200 137° Southeast 545 627 35,000  Level FlightAware
07:43AM 41.6970 19.4160 139° Southeast 547 629 35,000  Level FlightAware
07:44AM 41.6200 19.5030 140° Southeast 546 628 35,000  Level FlightAware
07:44AM 41.5720 19.5560 140° Southeast 546 628 35,000  Level FlightAware
07:45AM 41.4830 19.6560 140° Southeast 547 629 35,000  Level FlightAware
07:46AM 41.4320 19.7150 139° Southeast 545 627 35,000  Level FlightAware
07:46AM 41.3490 19.8230 136° Southeast 540 621 35,000  Level FlightAware
07:47AM 41.2560 19.9490 134° Southeast 538 619 35,000  Level FlightAware
07:48AM 41.2050 20.0170 135° Southeast 539 620 35,000  Level FlightAware
07:48AM 41.1360 20.1110 134° Southeast 540 621 35,000  Level FlightAware
07:49AM 41.0570 20.2160 135° Southeast 540 621 35,000  Level FlightAware
07:50AM 40.9930 20.3010 135° Southeast 540 621 35,000  Level FlightAware
07:50AM 40.9230 20.3930 135° Southeast 540 621 35,000  Level FlightAware
07:51AM 40.8430 20.4970 135° Southeast 538 619 35,000  Level FlightAware
07:52AM 40.7960 20.5600 135° Southeast 531 611 35,000  Level FlightAware
07:52AM 40.7260 20.6510 135° Southeast 528 608 35,000  Level FlightAware
07:53AM 40.6580 20.7400 135° Southeast 527 606 35,000  Level FlightAware
07:54AM 40.5900 20.8290 135° Southeast 526 605 35,000  Level FlightAware
07:54AM 40.5130 20.9280 136° Southeast 524 603 35,000  Level FlightAware
07:55AM 40.4270 21.0320 137° Southeast 521 600 35,000  Level FlightAware
07:56AM 40.3640 21.1490 125° Southeast 516 594 35,000  Level FlightAware
07:57AM 40.3060 21.2660 123° Southeast 516 594 35,000  Level FlightAware
07:57AM 40.2510 21.3700 125° Southeast 513 590 35,000  Level FlightAware
07:58AM 40.1970 21.4670 126° Southeast 518 596 35,000  Level FlightAware
07:59AM 40.1310 21.5850 126° Southeast 517 595 35,000  Level FlightAware
07:59AM 40.0680 21.6980 126° Southeast 514 592 35,000  Level FlightAware
08:00AM 40.0210 21.7850 125° Southeast 512 589 35,000  Level FlightAware
08:00AM 39.9800 21.8640 124° Southeast 513 590 35,000  Level FlightAware
08:01AM 39.9400 21.9390 125° Southeast 514 592 35,000  Level FlightAware
08:02AM 39.8860 22.0400 125° Southeast 514 592 35,000  Level FlightAware
08:02AM 39.8450 22.1180 124° Southeast 510 587 35,000  Level FlightAware
08:03AM 39.7760 22.2450 125° Southeast 510 587 35,000  Level FlightAware
08:04AM 39.7080 22.3720 125° Southeast 510 587 35,000  Level FlightAware
08:05AM 39.6460 22.4860 125° Southeast 511 588 35,000  Level FlightAware
08:05AM 39.5920 22.5860 125° Southeast 509 586 35,000  Level FlightAware
08:06AM 39.5370 22.6860 125° Southeast 509 586 35,000  Level FlightAware
08:07AM 39.4740 22.8010 125° Southeast 509 586 35,000  Level FlightAware
08:07AM 39.4190 22.9010 125° Southeast 511 588 35,000  Level FlightAware
08:08AM 39.3570 23.0140 125° Southeast 514 592 35,000  Level FlightAware
08:09AM 39.3010 23.1150 126° Southeast 514 592 35,000  Level FlightAware
08:09AM 39.2380 23.2290 125° Southeast 519 597 35,000  Level FlightAware
08:10AM 39.1820 23.3290 126° Southeast 520 598 35,000  Level FlightAware
08:11AM 39.1260 23.4310 125° Southeast 520 598 35,000  Level FlightAware
08:11AM 39.0730 23.5250 126° Southeast 519 597 35,000  Level FlightAware
08:12AM 39.0100 23.6210 130° Southeast 521 600 35,000  Level FlightAware
08:13AM 38.9560 23.6850 137° Southeast 520 598 35,000  Level FlightAware
08:13AM 38.8840 23.7660 139° Southeast 521 600 35,000  Level FlightAware
08:14AM 38.8110 23.8460 139° Southeast 519 597 35,000  Level FlightAware
08:15AM 38.7310 23.9350 139° Southeast 518 596 35,000  Level FlightAware
08:15AM 38.6590 24.0160 139° Southeast 518 596 35,000  Level FlightAware
08:16AM 38.5870 24.0950 139° Southeast 517 595 35,000  Level FlightAware
08:17AM 38.5140 24.1760 139° Southeast 516 594 35,000  Level FlightAware
08:17AM 38.4320 24.2670 139° Southeast 516 594 35,000  Level FlightAware
08:18AM 38.3700 24.3360 139° Southeast 517 595 35,000  Level FlightAware
08:19AM 38.2960 24.4160 140° Southeast 517 595 35,000  Level FlightAware
08:19AM 38.2130 24.5070 139° Southeast 518 596 35,000  Level FlightAware
08:20AM 38.1400 24.5870 139° Southeast 519 597 35,000  Level FlightAware
08:21AM 38.0600 24.6740 139° Southeast 519 597 35,000  Level FlightAware
08:21AM 37.9880 24.7510 140° Southeast 519 597 35,000  Level FlightAware
08:22AM 37.9130 24.8320 140° Southeast 521 600 35,000  Level FlightAware
08:23AM 37.8420 24.9100 139° Southeast 521 600 35,000  Level FlightAware
08:23AM 37.7860 24.9700 140° Southeast 521 600 35,000  Level FlightAware
08:24AM 37.7300 25.0290 140° Southeast 521 600 35,000  Level FlightAware
08:24AM 37.6570 25.1080 139° Southeast 521 600 35,000  Level FlightAware
08:25AM 37.5840 25.1860 140° Southeast 520 598 35,000  Level FlightAware
08:26AM 37.5100 25.2640 140° Southeast 520 598 35,000  Level FlightAware
08:26AM 37.4350 25.3440 140° Southeast 521 600 35,000  Level FlightAware
08:27AM 37.3610 25.4230 140° Southeast 522 601 35,000  Level FlightAware
08:28AM 37.2950 25.4920 140° Southeast 523 602 35,000  Level FlightAware
08:28AM 37.2320 25.5590 140° Southeast 523 602 35,000  Level FlightAware
08:29AM 37.1590 25.6360 140° Southeast 521 600 35,000  Level FlightAware
08:30AM 37.0540 25.7450 140° Southeast 521 600 35,000  Level FlightAware
08:31AM 36.9810 25.8230 140° Southeast 519 597 35,000  Level FlightAware
08:31AM 36.9130 25.8980 139° Southeast 524 603 35,000  Level FlightAware
08:32AM 36.8550 26.0070 124° Southeast 528 608 35,000  Level FlightAware
08:33AM 36.7950 26.1170 124° Southeast 527 606 35,000  Level FlightAware
08:33AM 36.7460 26.2060 124° Southeast 527 606 35,000  Level FlightAware
08:34AM 36.6970 26.2900 126° Southeast 529 609 35,000  Level FlightAware
08:34AM 36.6460 26.3790 126° Southeast 533 613 35,000  Level FlightAware
08:35AM 36.5990 26.4670 124° Southeast 534 615 35,000  Level FlightAware
08:36AM 36.5530 26.5540 123° Southeast 535 616 35,000  Level FlightAware
08:36AM 36.5100 26.6340 124° Southeast 537 618 35,000  Level FlightAware
08:37AM 36.4540 26.7380 124° Southeast 539 620 35,000  Level FlightAware
08:37AM 36.3980 26.8410 124° Southeast 543 625 35,000  Level FlightAware
08:38AM 36.3530 26.9240 124° Southeast 544 626 35,000  Level FlightAware
08:38AM 36.3060 27.0090 124° Southeast 544 626 35,000  Level FlightAware
08:39AM 36.2490 27.1130 124° Southeast 545 627 35,000  Level FlightAware
08:40AM 36.1880 27.2240 124° Southeast 544 626 35,000  Level FlightAware
08:41AM 36.1280 27.3340 124° Southeast 544 626 35,000  Level FlightAware
08:41AM 36.0920 27.4000 124° Southeast 544 626 35,000  Level FlightAware
08:42AM 36.0440 27.4880 124° Southeast 544 626 35,000  Level FlightAware
08:42AM 36.0080 27.5540 124° Southeast 544 626 35,000  Level FlightAware
08:43AM 35.9140 27.7200 125° Southeast 540 621 35,000  Level FlightAware
08:44AM 35.8500 27.8330 125° Southeast 539 620 35,000  Level FlightAware
08:45AM 35.7650 27.9850 125° Southeast 539 620 35,000  Level FlightAware
08:46AM 35.6910 28.1150 125° Southeast 538 619 35,000  Level FlightAware
08:47AM 35.6200 28.2420 124° Southeast 537 618 35,000  Level FlightAware
08:47AM 35.5540 28.3580 125° Southeast 537 618 35,000  Level FlightAware
08:48AM 35.5110 28.4330 125° Southeast 537 618 35,000  Level FlightAware
08:48AM 35.4540 28.5320 125° Southeast 537 618 35,000  Level FlightAware
08:49AM 35.4060 28.6170 125° Southeast 537 618 35,000  Level FlightAware
08:50AM 35.3540 28.7070 125° Southeast 538 619 35,000  Level FlightAware
08:50AM 35.2830 28.8300 125° Southeast 538 619 35,000  Level FlightAware
08:51AM 35.2190 28.9420 125° Southeast 537 618 35,000  Level FlightAware
08:52AM 35.1680 29.0300 125° Southeast 536 617 35,000  Level FlightAware
08:53AM 35.1080 29.1330 125° Southeast 536 617 35,000  Level FlightAware
08:53AM 35.0460 29.2420 125° Southeast 532 612 35,000  Level FlightAware
08:54AM 34.9580 29.3900 126° Southeast 537 618 35,000  Level FlightAware
08:55AM 34.9100 29.4750 125° Southeast 537 618 35,000  Level FlightAware
08:56AM 34.8010 29.6560 126° Southeast 532 612 35,000  Level FlightAware
08:57AM 34.7020 29.8240 126° Southeast 532 612 35,000  Level FlightAware
08:58AM 34.6160 29.9960 121° Southeast 543 625 35,000  Level FlightAware
08:59AM 34.5550 30.1230 120° Southeast 543 625 35,000  Level FlightAware
09:00AM 34.5070 30.2260 119° Southeast 543 625 35,000  Level FlightAware
09:01AM 34.4420 30.3600 120° Southeast 544 626 35,000  Level FlightAware
09:01AM 34.3800 30.4880 120° Southeast 543 625 35,000  Level FlightAware
09:02AM 34.3400 30.5690 121° Southeast 543 625 35,000  Level FlightAware
09:03AM 34.2880 30.6750 121° Southeast 543 625 35,000  Level FlightAware
09:03AM 34.2440 30.7640 121° Southeast 543 625 35,000  Level FlightAware
09:04AM 34.1850 30.8840 121° Southeast 541 623 35,000  Level FlightAware
09:05AM 34.1400 30.9750 121° Southeast 539 620 35,000  Level FlightAware
09:05AM 34.0980 31.0610 121° Southeast 539 620 35,000  Level FlightAware
09:06AM 34.0580 31.1430 120° Southeast 537 618 35,000  Level FlightAware
09:06AM 34.0120 31.2340 121° Southeast 536 617 35,000  Level FlightAware
09:07AM 33.9630 31.3340 121° Southeast 535 616 35,000  Level FlightAware
09:07AM 33.9170 31.4270 121° Southeast 535 616 35,000  Level FlightAware
09:08AM 33.8780 31.5040 121° Southeast 535 616 35,000  Level FlightAware
09:09AM 33.8280 31.6050 121° Southeast 534 615 35,000  Level FlightAware
09:09AM 33.7710 31.7200 121° Southeast 534 615 35,000  Level FlightAware
09:10AM 33.7250 31.8090 122° Southeast 534 615 35,000  Level FlightAware
09:11AM 33.6690 31.9210 121° Southeast 534 615 35,000  Level FlightAware
09:11AM 33.6110 32.0370 121° Southeast 535 616 35,000  Level FlightAware
09:12AM 33.5520 32.1530 121° Southeast 534 615 35,000  Level FlightAware
09:13AM 33.5060 32.2440 121° Southeast 534 615 35,000  Level FlightAware
09:14AM 33.4510 32.3520 121° Southeast 534 615 35,000  Level FlightAware
09:14AM 33.3830 32.4840 122° Southeast 533 613 35,000  Level FlightAware
09:15AM 33.2980 32.6500 121° Southeast 532 612 35,000  Level FlightAware
09:16AM 33.2470 32.7480 122° Southeast 533 613 35,000 -840 Level FlightAware
09:17AM 33.2030 32.8350 121° Southeast 528 608 34,000 -1,920 Descending FlightAware
09:18AM 33.1330 32.9710 122° Southeast 507 583 32,000 -1,980 Descending FlightAware
09:18AM 33.0820 33.0680 122° Southeast 499 574 30,700 -1,920 Descending FlightAware
09:19AM 33.0230 33.1810 122° Southeast 478 550 29,300 -1,980 Descending FlightAware
09:20AM 32.9840 33.2560 122° Southeast 470 541 28,100 -2,100 Descending FlightAware
09:20AM 32.9380 33.3440 122° Southeast 457 526 26,700 -2,100 Descending FlightAware
09:21AM 32.8840 33.4470 122° Southeast 442 509 25,000 -1,980 Descending FlightAware
09:22AM 32.8480 33.5160 122° Southeast 431 496 23,900 -2,520 Descending FlightAware
09:23AM 32.7980 33.6090 123° Southeast 433 498 21,700 -3,060 Descending FlightAware
09:23AM 32.7560 33.6910 121° Southeast 437 503 19,600 -2,820 Descending FlightAware
09:24AM 32.7130 33.7710 123° Southeast 426 490 18,000 -2,700 Descending FlightAware
09:25AM 32.6650 33.8620 122° Southeast 421 484 15,800 -2,580 Descending FlightAware
09:25AM 32.6240 33.9390 122° Southeast 402 463 14,400 -1,980 Descending FlightAware
09:26AM 32.5810 34.0190 123° Southeast 385 443 13,000 -1,980 Descending FlightAware
09:27AM 32.5440 34.0900 122° Southeast 375 432 11,600 -2,100 Descending FlightAware
09:27AM 32.5040 34.1590 124° Southeast 365 420 10,200 -1,980 Descending FlightAware
09:28AM 32.4710 34.2010 133° Southeast 352 405 9,300 -1,920 Descending FlightAware
09:28AM 32.4530 34.2230 134° Southeast 348 400 8,800 -900 Descending FlightAware
09:29AM 32.4120 34.2710 135° Southeast 346 398 8,500 -1,500 Descending FlightAware
09:29AM 32.3790 34.3100 135° Southeast 329 379 7,100 -2,580 Descending FlightAware
09:30AM 32.3600 34.3330 134° Southeast 327 376 6,600 -1,200 Descending FlightAware
09:30AM 32.3330 34.3630 137° Southeast 328 377 6,300 -480 Descending FlightAware
09:30AM 32.3040 34.3970 135° Southeast 326 375 6,200 -240 Descending FlightAware
09:33AM 32.1110 34.6540 125° Southeast  Level FlightAware Approximate
09:34AM 32.0398 34.8003 125° Southeast  Level FlightAware Approximate
09:35AM 32.0000 34.8667 125° Southeast  Level FlightAware Approximate
09:36AM 32.0095 34.8769 125° Southeast  Level Estimated
09:37AM 32.0095 34.8769 125° Southeast  Level Estimated
09:38AM 32.0095 34.8769 125° Southeast  Level Estimated
09:39AM 32.0095 34.8769 125° Southeast  Level Estimated
09:40AM 32.0095 34.8769 125° Southeast  Level Estimated
09:41AM 32.0095 34.8769 125° Southeast  Level Estimated
09:42AM 32.0095 34.8769 125° Southeast  Level Estimated
09:43AM 32.0095 34.8769 125° Southeast  Level Estimated
09:44AM 32.0095 34.8769 125° Southeast  Level Estimated
09:45AM 32.0095 34.8769 125° Southeast  Level Estimated
09:46AM 32.0095 34.8769 125° Southeast  Level Estimated
09:47AM 32.0095 34.8769 125° Southeast  Level Estimated
09:48AM 32.0095 34.8769 125° Southeast  Level Estimated
09:49AM 32.0095 34.8769 125° Southeast  Level Estimated
09:50AM 32.0095 34.8769 125° Southeast  Level Estimated
09:51AM 32.0095 34.8769 125° Southeast  Level Estimated
09:52AM 32.0095 34.8769 125° Southeast  Level Estimated
09:53AM 32.0095 34.8769 125° Southeast  Level Estimated
09:54AM 32.0095 34.8769 125° Southeast  Level Estimated
09:55AM 32.0095 34.8769 125° Southeast  Level Estimated
09:56AM 32.0095 34.8769 125° Southeast  Level Estimated